createdAt,value
2018-11-07T00:01:48.453Z,99897.59
2018-11-07T00:03:56.208Z,99902.36
2018-11-07T00:06:04.071Z,99901.77
2018-11-07T00:08:09.257Z,99907.09
2018-11-07T00:10:35.389Z,99897.70
2018-11-07T00:12:43.151Z,99908.51
2018-11-07T00:14:50.841Z,99902.42
2018-11-07T00:16:58.619Z,99905.76
2018-11-07T00:19:06.921Z,99910.94
2018-11-07T00:21:14.649Z,99912.30
2018-11-07T00:23:22.413Z,99909.63
2018-11-07T00:25:30.762Z,99902.10
2018-11-07T00:27:38.545Z,99900.23
2018-11-07T00:29:46.305Z,99897.09
2018-11-07T00:31:54.108Z,99896.23
2018-11-07T00:34:01.993Z,99897.06
2018-11-07T00:36:09.740Z,99896.58
2018-11-07T00:38:17.472Z,99896.72
2018-11-07T00:40:25.209Z,99901.14
2018-11-07T00:42:32.940Z,99906.20
2018-11-07T00:44:40.731Z,99905.66
2018-11-07T00:46:48.465Z,99910.70
2018-11-07T00:48:56.303Z,99917.59
2018-11-07T00:51:04.127Z,99916.20
2018-11-07T00:53:11.851Z,99919.48
2018-11-07T00:55:20.483Z,99919.94
2018-11-07T00:57:28.298Z,99918.80
2018-11-07T00:59:36.127Z,99919.70
2018-11-07T01:01:43.865Z,99923.84
2018-11-07T01:03:51.737Z,99926.73
2018-11-07T01:05:59.330Z,99923.80
2018-11-07T01:08:07.058Z,99925.37
2018-11-07T01:10:12.804Z,99932.20
2018-11-07T01:12:20.549Z,99934.50
2018-11-07T01:14:28.273Z,99935.80
2018-11-07T01:16:37.025Z,99935.00
2018-11-07T01:18:44.870Z,99933.33
2018-11-07T01:20:52.568Z,99938.50
2018-11-07T01:23:00.943Z,99936.61
2018-11-07T01:25:10.157Z,99931.27
2018-11-07T01:27:18.145Z,99929.88
2018-11-07T01:29:25.841Z,99932.03
2018-11-07T01:31:33.578Z,99926.73
2018-11-07T01:33:41.375Z,99934.52
2018-11-07T01:35:49.090Z,99931.27
2018-11-07T01:37:56.811Z,99920.99
2018-11-07T01:40:04.548Z,99914.92
2018-11-07T01:42:12.388Z,99917.31
2018-11-07T01:44:20.221Z,99910.16
2018-11-07T01:46:27.906Z,99903.13
2018-11-07T01:48:35.632Z,99901.29
2018-11-07T01:50:43.343Z,99906.42
2018-11-07T01:52:51.066Z,99913.53
2018-11-07T01:54:58.830Z,99912.98
2018-11-07T01:57:06.573Z,99904.73
2018-11-07T01:59:14.291Z,99911.52
2018-11-07T02:01:22.152Z,99906.52
2018-11-07T02:03:29.948Z,99896.48
2018-11-07T02:05:37.697Z,99905.80
2018-11-07T02:07:45.395Z,99905.68
2018-11-07T02:09:53.136Z,99900.91
2018-11-07T02:12:01.452Z,99902.58
2018-11-07T02:14:09.157Z,99900.20
2018-11-07T02:16:17.769Z,99897.05
2018-11-07T02:18:25.483Z,99890.11
2018-11-07T02:20:33.184Z,99887.45
2018-11-07T02:22:41.881Z,99884.39
2018-11-07T02:24:49.656Z,99876.16
2018-11-07T02:26:57.400Z,99877.06
2018-11-07T02:29:05.213Z,99884.39
2018-11-07T02:31:15.730Z,99887.00
2018-11-07T02:33:23.415Z,99883.48
2018-11-07T02:35:31.110Z,99885.97
2018-11-07T02:37:39.153Z,99890.11
2018-11-07T02:39:46.953Z,99900.29
2018-11-07T02:41:54.751Z,99906.89
2018-11-07T02:44:02.381Z,99912.29
2018-11-07T02:46:10.146Z,99912.14
2018-11-07T02:48:17.864Z,99906.80
2018-11-07T02:50:25.674Z,99898.12
2018-11-07T02:52:33.352Z,99896.24
2018-11-07T02:54:41.944Z,99896.88
2018-11-07T02:56:50.523Z,99894.51
2018-11-07T02:58:58.716Z,99897.40
2018-11-07T03:01:06.630Z,99896.45
2018-11-07T03:03:14.280Z,99895.55
2018-11-07T03:05:25.829Z,99899.11
2018-11-07T03:07:33.618Z,99895.59
2018-11-07T03:09:41.336Z,99892.41
2018-11-07T03:11:49.053Z,99893.22
2018-11-07T03:13:57.577Z,99895.37
2018-11-07T03:16:05.404Z,99905.38
2018-11-07T03:18:13.234Z,99902.86
2018-11-07T03:20:21.060Z,99909.59
2018-11-07T03:22:28.799Z,99915.61
2018-11-07T03:24:36.534Z,99910.77
2018-11-07T03:26:44.188Z,99910.24
2018-11-07T03:28:51.913Z,99911.06
2018-11-07T03:30:59.616Z,99903.20
2018-11-07T03:33:09.626Z,99902.20
2018-11-07T03:35:28.238Z,99898.45
2018-11-07T03:37:36.062Z,99893.80
2018-11-07T03:39:43.926Z,99901.63
2018-11-07T03:41:52.609Z,99904.23
2018-11-07T03:44:00.918Z,99894.55
2018-11-07T03:46:08.823Z,99886.16
2018-11-07T03:48:17.780Z,99894.75
2018-11-07T03:50:25.524Z,99881.59
2018-11-07T03:52:33.792Z,99885.55
2018-11-07T03:54:41.960Z,99887.41
2018-11-07T03:56:49.785Z,99883.55
2018-11-07T03:58:58.691Z,99879.30
2018-11-07T04:01:06.762Z,99874.94
2018-11-07T04:03:14.792Z,99873.72
2018-11-07T04:05:22.578Z,99883.66
2018-11-07T04:07:30.312Z,99886.72
2018-11-07T04:09:38.319Z,99891.37
2018-11-07T04:11:46.366Z,99891.37
2018-11-07T04:13:54.061Z,99899.15
2018-11-07T04:16:02.816Z,99900.86
2018-11-07T04:18:10.538Z,99894.75
2018-11-07T04:20:18.303Z,99886.36
2018-11-07T04:22:26.032Z,99877.02
2018-11-07T04:24:33.753Z,99866.42
2018-11-07T04:26:41.482Z,99865.97
2018-11-07T04:28:49.404Z,99872.25
2018-11-07T04:30:57.137Z,99878.58
2018-11-07T04:33:04.856Z,99881.05
2018-11-07T04:35:13.370Z,99880.00
2018-11-07T04:37:21.074Z,99877.59
2018-11-07T04:39:28.772Z,99882.51
2018-11-07T04:41:36.481Z,99880.91
2018-11-07T04:43:44.452Z,99877.16
2018-11-07T04:45:52.180Z,99871.70
2018-11-07T04:47:59.984Z,99888.79
2018-11-07T04:50:09.312Z,99890.73
2018-11-07T04:52:18.266Z,99894.42
2018-11-07T04:54:25.971Z,99894.23
2018-11-07T04:56:34.044Z,99892.22
2018-11-07T04:58:42.271Z,99891.81
2018-11-07T05:00:49.952Z,99886.19
2018-11-07T05:02:58.184Z,99884.74
2018-11-07T05:05:06.224Z,99891.48
2018-11-07T05:07:13.997Z,99892.07
2018-11-07T05:09:21.736Z,99884.17
2018-11-07T05:11:29.756Z,99889.88
2018-11-07T05:13:38.251Z,99889.13
2018-11-07T05:15:47.006Z,99881.02
2018-11-07T05:17:54.432Z,99881.98
2018-11-07T05:20:02.298Z,99886.01
2018-11-07T05:22:10.212Z,99890.81
2018-11-07T05:24:18.549Z,99888.24
2018-11-07T05:26:26.475Z,99892.52
2018-11-07T05:28:34.405Z,99889.32
2018-11-07T05:30:42.412Z,99888.77
2018-11-07T05:32:50.472Z,99884.33
2018-11-07T05:34:58.427Z,99892.67
2018-11-07T05:37:06.939Z,99893.67
2018-11-07T05:39:14.800Z,99905.17
2018-11-07T05:41:23.598Z,99909.30
2018-11-07T05:43:31.322Z,99912.50
2018-11-07T05:45:39.233Z,99904.23
2018-11-07T05:47:47.016Z,99903.64
2018-11-07T05:49:55.377Z,99906.44
2018-11-07T05:52:03.389Z,99908.00
2018-11-07T05:54:11.116Z,99915.34
2018-11-07T05:56:18.906Z,99911.61
2018-11-07T05:58:26.889Z,99909.19
2018-11-07T06:00:34.640Z,99907.44
2018-11-07T06:02:42.592Z,99909.45
2018-11-07T06:04:50.348Z,99918.73
2018-11-07T06:06:58.085Z,99930.67
2018-11-07T06:09:07.508Z,99936.48
2018-11-07T06:11:15.328Z,99934.25
2018-11-07T06:13:23.135Z,99920.52
2018-11-07T06:15:30.879Z,99925.16
2018-11-07T06:17:38.695Z,99925.84
2018-11-07T06:19:47.599Z,99928.06
2018-11-07T06:21:55.732Z,99936.62
2018-11-07T06:24:03.692Z,99923.00
2018-11-07T06:26:11.551Z,99929.78
2018-11-07T06:28:19.247Z,99934.03
2018-11-07T06:30:27.253Z,99929.63
2018-11-07T06:32:35.120Z,99931.80
2018-11-07T06:34:45.611Z,99933.84
2018-11-07T06:36:53.325Z,99938.12
2018-11-07T06:39:01.233Z,99935.81
2018-11-07T06:41:08.925Z,99938.49
2018-11-07T06:43:16.662Z,99941.33
2018-11-07T06:45:24.388Z,99942.22
2018-11-07T06:47:32.106Z,99943.93
2018-11-07T06:49:40.175Z,99946.16
2018-11-07T06:51:48.349Z,99942.14
2018-11-07T06:53:56.501Z,99948.50
2018-11-07T06:56:04.300Z,99948.67
2018-11-07T06:58:12.096Z,99957.80
2018-11-07T07:00:19.897Z,99951.28
2018-11-07T07:02:27.643Z,99957.39
2018-11-07T07:04:35.336Z,99957.88
2018-11-07T07:06:43.211Z,99960.95
2018-11-07T07:08:50.942Z,99961.44
2018-11-07T07:10:58.729Z,99964.38
2018-11-07T07:13:06.690Z,99963.42
2018-11-07T07:15:15.915Z,99958.47
2018-11-07T07:17:23.866Z,99960.05
2018-11-07T07:19:31.700Z,99957.37
2018-11-07T07:21:37.990Z,99956.95
2018-11-07T07:23:45.248Z,99963.55
2018-11-07T07:25:53.218Z,99954.05
2018-11-07T07:28:03.186Z,99958.37
2018-11-07T07:30:21.721Z,99959.67
2018-11-07T07:32:29.432Z,99953.61
2018-11-07T07:34:37.471Z,99960.11
2018-11-07T07:36:46.582Z,99954.91
2018-11-07T07:38:54.508Z,99953.64
2018-11-07T07:41:02.215Z,99957.03
2018-11-07T07:43:10.068Z,99948.21
2018-11-07T07:45:20.002Z,99950.22
2018-11-07T07:47:28.777Z,99954.39
2018-11-07T07:49:36.683Z,99961.20
2018-11-07T07:51:44.544Z,99959.27
2018-11-07T07:53:52.301Z,99959.02
2018-11-07T07:56:01.313Z,99951.86
2018-11-07T07:58:09.063Z,99950.61
2018-11-07T08:00:20.751Z,99951.12
2018-11-07T08:02:28.495Z,99948.11
2018-11-07T08:04:36.443Z,99951.59
2018-11-07T08:06:44.190Z,99951.62
2018-11-07T08:08:51.919Z,99943.87
2018-11-07T08:10:59.714Z,99945.66
2018-11-07T08:13:07.548Z,99940.53
2018-11-07T08:15:16.301Z,99937.98
2018-11-07T08:17:24.606Z,99938.94
2018-11-07T08:19:32.379Z,99943.37
2018-11-07T08:21:40.245Z,99944.36
2018-11-07T08:23:48.090Z,99947.47
2018-11-07T08:25:55.814Z,99949.32
2018-11-07T08:28:03.501Z,99946.83
2018-11-07T08:30:19.746Z,99947.91
2018-11-07T08:32:27.574Z,99946.33
2018-11-07T08:34:35.307Z,99945.59
2018-11-07T08:36:43.218Z,99939.19
2018-11-07T08:38:51.166Z,99937.27
2018-11-07T08:40:58.912Z,99937.80
2018-11-07T08:43:06.654Z,99931.33
2018-11-07T08:45:14.714Z,99934.05
2018-11-07T08:47:22.434Z,99931.55
2018-11-07T08:49:30.187Z,99937.25
2018-11-07T08:51:37.924Z,99943.44
2018-11-07T08:53:45.768Z,99948.77
2018-11-07T08:55:53.745Z,99944.98
2018-11-07T08:58:02.169Z,99943.78
2018-11-07T09:00:15.824Z,99941.70
2018-11-07T09:02:23.621Z,99941.81
2018-11-07T09:04:31.592Z,99948.43
2018-11-07T09:06:39.388Z,99946.41
2018-11-07T09:08:47.174Z,99951.74
2018-11-07T09:10:54.967Z,99944.47
2018-11-07T09:13:04.759Z,99951.15
2018-11-07T09:15:23.240Z,99945.54
2018-11-07T09:17:28.396Z,99947.83
2018-11-07T09:19:36.245Z,99943.53
2018-11-07T09:21:44.098Z,99941.42
2018-11-07T09:23:51.894Z,99947.61
2018-11-07T09:25:59.645Z,99944.64
2018-11-07T09:28:07.394Z,99939.47
2018-11-07T09:30:20.218Z,99942.83
2018-11-07T09:32:27.958Z,99941.23
2018-11-07T09:34:35.849Z,99940.09
2018-11-07T09:36:44.228Z,99940.66
2018-11-07T09:38:52.005Z,99946.00
2018-11-07T09:41:00.976Z,99947.02
2018-11-07T09:43:08.861Z,99934.92
2018-11-07T09:45:18.948Z,99938.53
2018-11-07T09:47:28.194Z,99934.75
2018-11-07T09:49:37.475Z,99938.00
2018-11-07T09:51:45.278Z,99936.48
2018-11-07T09:53:53.975Z,99933.63
2018-11-07T09:56:05.233Z,99931.69
2018-11-07T09:58:13.044Z,99934.08
2018-11-07T10:00:22.530Z,99934.63
2018-11-07T10:02:31.010Z,99937.80
2018-11-07T10:04:39.750Z,99930.53
2018-11-07T10:06:50.104Z,99935.55
2018-11-07T10:09:00.775Z,99930.52
2018-11-07T10:11:09.113Z,99935.91
2018-11-07T10:13:16.877Z,99930.03
2018-11-07T10:15:24.668Z,99931.59
2018-11-07T10:17:29.581Z,99927.48
2018-11-07T10:19:37.624Z,99925.06
2018-11-07T10:21:46.573Z,99924.46
2018-11-07T10:23:54.358Z,99921.20
2018-11-07T10:26:02.288Z,99926.66
2018-11-07T10:28:10.379Z,99922.94
2018-11-07T10:30:20.144Z,99922.80
2018-11-07T10:32:30.421Z,99919.09
2018-11-07T10:34:38.416Z,99915.83
2018-11-07T10:36:46.109Z,99923.00
2018-11-07T10:38:54.911Z,99919.77
2018-11-07T10:41:03.747Z,99918.58
2018-11-07T10:43:11.973Z,99917.48
2018-11-07T10:45:20.004Z,99913.20
2018-11-07T10:47:27.751Z,99906.83
2018-11-07T10:49:37.619Z,99917.09
2018-11-07T10:51:45.644Z,99906.86
2018-11-07T10:53:53.422Z,99904.08
2018-11-07T10:56:01.163Z,99905.12
2018-11-07T10:58:09.373Z,99907.58
2018-11-07T11:00:35.259Z,99899.45
2018-11-07T11:02:53.744Z,99904.34
2018-11-07T11:05:01.688Z,99901.84
2018-11-07T11:07:09.499Z,99900.19
2018-11-07T11:09:17.247Z,99895.42
2018-11-07T11:11:25.231Z,99895.08
2018-11-07T11:13:35.976Z,99888.62
2018-11-07T11:15:43.848Z,99888.73
2018-11-07T11:17:49.242Z,99889.66
2018-11-07T11:19:57.094Z,99891.59
2018-11-07T11:22:04.933Z,99888.77
2018-11-07T11:24:12.617Z,99889.38
2018-11-07T11:26:20.712Z,99884.30
2018-11-07T11:28:28.465Z,99885.34
2018-11-07T11:30:36.504Z,99888.20
2018-11-07T11:32:44.285Z,99890.55
2018-11-07T11:34:52.240Z,99895.24
2018-11-07T11:37:00.060Z,99894.61
2018-11-07T11:39:12.105Z,99893.65
2018-11-07T11:41:20.279Z,99897.83
2018-11-07T11:43:28.392Z,99895.45
2018-11-07T11:45:36.298Z,99897.34
2018-11-07T11:47:44.445Z,99890.12
2018-11-07T11:49:52.299Z,99892.95
2018-11-07T11:52:00.415Z,99891.81
2018-11-07T11:54:08.377Z,99898.12
2018-11-07T11:56:16.118Z,99892.18
2018-11-07T11:58:23.893Z,99886.73
2018-11-07T12:00:31.654Z,99884.28
2018-11-07T12:02:39.400Z,99885.78
2018-11-07T12:04:47.396Z,99882.98
2018-11-07T12:06:55.082Z,99888.98
2018-11-07T12:09:02.973Z,99880.61
2018-11-07T12:11:11.301Z,99875.16
2018-11-07T12:13:19.102Z,99879.00
2018-11-07T12:15:27.978Z,99887.20
2018-11-07T12:17:35.659Z,99885.33
2018-11-07T12:19:40.977Z,99883.81
2018-11-07T12:21:48.816Z,99883.73
2018-11-07T12:24:03.404Z,99882.67
2018-11-07T12:26:15.277Z,99877.31
2018-11-07T12:28:23.166Z,99880.20
2018-11-07T12:30:32.116Z,99875.31
2018-11-07T12:32:39.984Z,99878.25
2018-11-07T12:34:47.783Z,99877.95
2018-11-07T12:36:56.283Z,99878.59
2018-11-07T12:39:08.103Z,99874.94
2018-11-07T12:41:18.795Z,99879.66
2018-11-07T12:43:26.584Z,99878.63
2018-11-07T12:45:34.659Z,99882.76
2018-11-07T12:47:43.093Z,99874.63
2018-11-07T12:49:50.895Z,99871.34
2018-11-07T12:51:58.701Z,99876.03
2018-11-07T12:54:06.587Z,99871.43
2018-11-07T12:56:15.472Z,99868.58
2018-11-07T12:58:23.445Z,99868.41
2018-11-07T13:00:31.067Z,99862.91
2018-11-07T13:02:38.869Z,99868.36
2018-11-07T13:04:47.149Z,99870.34
2018-11-07T13:06:56.049Z,99866.27
2018-11-07T13:09:03.819Z,99876.64
2018-11-07T13:11:11.688Z,99879.54
2018-11-07T13:13:19.915Z,99882.94
2018-11-07T13:15:29.754Z,99882.73
2018-11-07T13:17:37.595Z,99882.55
2018-11-07T13:19:45.430Z,99882.80
2018-11-07T13:21:53.162Z,99894.97
2018-11-07T13:24:02.251Z,99900.42
2018-11-07T13:26:10.037Z,99903.79
2018-11-07T13:28:19.064Z,99906.81
2018-11-07T13:30:26.701Z,99904.55
2018-11-07T13:32:34.579Z,99908.89
2018-11-07T13:39:02.828Z,99908.20
2018-11-07T13:41:10.239Z,99904.91
2018-11-07T13:43:18.219Z,99902.61
2018-11-07T13:45:26.886Z,99908.28
2018-11-07T13:47:34.505Z,99900.73
2018-11-07T13:49:42.228Z,99901.48
2018-11-07T13:56:06.711Z,99906.09
2018-11-07T13:58:14.658Z,99910.90
2018-11-07T14:00:23.601Z,99911.38
2018-11-07T14:02:31.446Z,99910.05
2018-11-07T14:04:39.205Z,99915.71
2018-11-07T14:11:03.796Z,99918.06
2018-11-07T14:13:11.505Z,99916.75
2018-11-07T14:15:20.159Z,99919.52
2018-11-07T14:17:27.962Z,99925.27
2018-11-07T14:19:35.835Z,99921.30
2018-11-07T14:21:40.822Z,99927.44
2018-11-07T14:23:48.787Z,99933.06
2018-11-07T14:25:56.578Z,99936.30
2018-11-07T14:28:04.475Z,99938.09
2018-11-07T14:34:31.517Z,99947.73
2018-11-07T14:36:39.225Z,99948.30
2018-11-07T14:38:47.576Z,99954.55
2018-11-07T14:40:55.187Z,99949.36
2018-11-07T14:43:02.881Z,99952.94
2018-11-07T14:49:27.588Z,99948.69
2018-11-07T14:51:35.339Z,99954.48
2018-11-07T14:53:43.441Z,99955.51
2018-11-07T14:55:54.673Z,99965.69
2018-11-07T14:58:02.404Z,99968.08
2018-11-07T15:00:17.363Z,99969.10
2018-11-07T15:02:25.219Z,99978.17
2018-11-07T15:04:32.927Z,99977.53
2018-11-07T15:06:41.448Z,99978.17
2018-11-07T15:08:49.371Z,99977.53
2018-11-07T15:10:57.198Z,99979.70
2018-11-07T15:13:05.032Z,99985.75
2018-11-07T15:15:17.279Z,99982.46
2018-11-07T15:17:25.191Z,99978.70
2018-11-07T15:19:34.068Z,99987.27
2018-11-07T15:21:44.474Z,99985.77
2018-11-07T15:23:49.587Z,99987.76
2018-11-07T15:25:58.417Z,99987.20
2018-11-07T15:28:09.044Z,99993.75
2018-11-07T15:30:19.773Z,99987.26
2018-11-07T15:32:28.648Z,99986.78
2018-11-07T15:34:46.497Z,99986.01
2018-11-07T15:37:05.644Z,99989.70
2018-11-07T15:39:15.142Z,99992.03
2018-11-07T15:46:58.842Z,99978.56
2018-11-07T15:49:06.800Z,99992.58
2018-11-07T15:51:19.015Z,99997.39
2018-11-07T15:56:12.408Z,99997.41
2018-11-07T15:58:24.510Z,100006.68
2018-11-07T16:00:32.210Z,100018.96
2018-11-07T16:02:40.640Z,100013.96
2018-11-07T16:04:48.651Z,100016.20
2018-11-07T16:06:57.607Z,100028.56
2018-11-07T16:09:07.215Z,100026.08
2018-11-07T16:11:15.052Z,100031.42
2018-11-07T16:13:22.847Z,100023.29
2018-11-07T16:15:30.794Z,100030.91
2018-11-07T16:17:38.842Z,100037.84
2018-11-07T16:19:49.293Z,100048.39
2018-11-07T16:21:57.107Z,100052.47
2018-11-07T16:24:02.466Z,100056.19
2018-11-07T16:26:14.201Z,100064.09
2018-11-07T16:28:32.925Z,100070.53
2018-11-07T16:30:47.981Z,100072.42
2018-11-07T16:33:30.711Z,100078.68
2018-11-07T16:35:38.702Z,100078.08
2018-11-07T16:37:47.416Z,100079.85
2018-11-07T16:39:58.086Z,100086.18
2018-11-07T16:42:06.374Z,100094.86
2018-11-07T16:44:14.442Z,100095.39
2018-11-07T16:46:22.224Z,100102.08
2018-11-07T16:48:30.047Z,100110.79
2018-11-07T16:50:37.807Z,100122.17
2018-11-07T16:52:45.678Z,100124.52
2018-11-07T16:54:53.467Z,100128.46
2018-11-07T16:57:01.205Z,100133.16
2018-11-07T16:59:10.317Z,100132.55
2018-11-07T17:01:18.295Z,100135.48
2018-11-07T17:03:27.099Z,100138.42
2018-11-07T17:05:35.521Z,100142.30
2018-11-07T17:07:43.370Z,100144.77
2018-11-07T17:09:51.659Z,100151.73
2018-11-07T17:12:00.397Z,100152.59
2018-11-07T17:14:08.354Z,100156.53
2018-11-07T17:16:16.177Z,100159.16
2018-11-07T17:18:24.137Z,100160.48
2018-11-07T17:20:31.994Z,100159.16
2018-11-07T17:22:40.528Z,100159.63
2018-11-07T17:24:46.503Z,100164.89
2018-11-07T17:26:54.313Z,100169.70
2018-11-07T17:29:02.122Z,100163.65
2018-11-07T17:31:09.872Z,100160.73
2018-11-07T17:33:18.775Z,100168.70
2018-11-07T17:35:26.745Z,100164.28
2018-11-07T17:43:14.864Z,100175.27
2018-11-07T17:45:23.685Z,100179.29
2018-11-07T17:47:32.230Z,100189.06
2018-11-07T17:49:41.066Z,100195.25
2018-11-07T17:51:48.944Z,100193.48
2018-11-07T17:53:58.554Z,100194.33
2018-11-07T17:56:06.435Z,100184.16
2018-11-07T17:58:16.481Z,100185.80
2018-11-07T18:00:33.377Z,100191.92
2018-11-07T18:02:41.178Z,100184.55
2018-11-07T18:04:49.022Z,100192.45
2018-11-07T18:06:56.853Z,100190.60
2018-11-07T18:09:05.318Z,100193.13
2018-11-07T18:11:13.274Z,100198.72
2018-11-07T18:13:21.113Z,100204.16
2018-11-07T18:15:28.907Z,100210.94
2018-11-07T18:17:36.773Z,100206.94
2018-11-07T18:19:44.631Z,100217.55
2018-11-07T18:21:52.565Z,100220.55
2018-11-07T18:24:00.291Z,100219.24
2018-11-07T18:26:05.927Z,100220.92
2018-11-07T18:28:13.848Z,100226.87
2018-11-07T18:30:22.171Z,100229.44
2018-11-07T18:32:30.107Z,100236.18
2018-11-07T18:34:38.254Z,100231.08
2018-11-07T18:36:46.035Z,100225.20
2018-11-07T18:38:53.949Z,100221.11
2018-11-07T18:41:02.037Z,100222.20
2018-11-07T18:43:09.864Z,100228.53
2018-11-07T18:45:17.633Z,100231.92
2018-11-07T18:47:25.551Z,100236.59
2018-11-07T18:49:33.376Z,100232.54
2018-11-07T18:51:41.195Z,100233.33
2018-11-07T18:53:49.155Z,100234.18
2018-11-07T18:55:57.042Z,100232.80
2018-11-07T18:58:04.835Z,100238.42
2018-11-07T19:00:15.569Z,100236.64
2018-11-07T19:02:23.516Z,100240.76
2018-11-07T19:04:31.424Z,100245.34
2018-11-07T19:06:39.444Z,100252.97
2018-11-07T19:08:47.268Z,100255.60
2018-11-07T19:10:55.205Z,100263.83
2018-11-07T19:13:03.287Z,100274.25
2018-11-07T19:15:12.928Z,100273.63
2018-11-07T19:17:20.961Z,100279.88
2018-11-07T19:19:28.623Z,100280.83
2018-11-07T19:21:36.509Z,100285.59
2018-11-07T19:23:45.308Z,100274.94
2018-11-07T19:25:53.165Z,100278.66
2018-11-07T19:28:01.147Z,100288.20
2018-11-07T19:30:12.761Z,100282.44
2018-11-07T19:32:20.843Z,100280.77
2018-11-07T19:34:28.732Z,100280.77
2018-11-07T19:36:36.610Z,100279.52
2018-11-07T19:38:44.800Z,100282.61
2018-11-07T19:40:52.998Z,100283.40
2018-11-07T19:43:00.825Z,100288.43
2018-11-07T19:45:12.328Z,100289.97
2018-11-07T19:47:21.010Z,100288.13
2018-11-07T19:49:28.804Z,100287.57
2018-11-07T19:51:37.119Z,100290.59
2018-11-07T19:53:45.262Z,100297.64
2018-11-07T19:55:53.140Z,100299.12
2018-11-07T19:58:02.880Z,100308.06
2018-11-07T20:00:16.560Z,100312.23
2018-11-07T20:02:24.465Z,100320.05
2018-11-07T20:04:32.339Z,100328.36
2018-11-07T20:06:40.204Z,100328.69
2018-11-07T20:08:48.081Z,100324.47
2018-11-07T20:10:56.003Z,100325.66
2018-11-07T20:13:04.019Z,100323.27
2018-11-07T20:15:13.160Z,100325.21
2018-11-07T20:17:21.043Z,100331.63
2018-11-07T20:19:28.935Z,100335.91
2018-11-07T20:21:36.866Z,100336.36
2018-11-07T20:23:44.667Z,100334.65
2018-11-07T20:25:52.502Z,100340.70
2018-11-07T20:28:00.362Z,100342.41
2018-11-07T20:30:05.503Z,100332.35
2018-11-07T20:32:13.429Z,100335.45
2018-11-07T20:34:22.284Z,100338.93
2018-11-07T20:36:30.225Z,100340.09
2018-11-07T20:38:38.164Z,100341.40
2018-11-07T20:40:46.079Z,100348.59
2018-11-07T20:42:57.411Z,100351.97
2018-11-07T20:45:05.586Z,100350.64
2018-11-07T20:47:13.416Z,100355.27
2018-11-07T20:49:21.265Z,100361.90
2018-11-07T20:51:30.449Z,100361.96
2018-11-07T20:53:38.457Z,100361.20
2018-11-07T20:55:46.414Z,100369.55
2018-11-07T20:57:54.393Z,100375.72
2018-11-07T21:00:02.225Z,100380.92
2018-11-07T21:02:10.004Z,100371.78
2018-11-07T21:04:17.956Z,100375.75
2018-11-07T21:06:25.883Z,100378.38
2018-11-07T21:08:33.871Z,100380.55
2018-11-07T21:10:41.758Z,100381.56
2018-11-07T21:12:49.868Z,100381.69
2018-11-07T21:14:58.849Z,100385.23
2018-11-07T21:17:06.863Z,100374.86
2018-11-07T21:19:14.818Z,100381.13
2018-11-07T21:21:22.732Z,100378.32
2018-11-07T21:23:31.777Z,100387.13
2018-11-07T21:25:39.553Z,100384.80
2018-11-07T21:27:54.363Z,100388.63
2018-11-07T21:30:02.389Z,100394.64
2018-11-07T21:32:08.182Z,100401.67
2018-11-07T21:34:16.114Z,100406.11
2018-11-07T21:36:23.962Z,100400.75
2018-11-07T21:38:31.828Z,100401.00
2018-11-07T21:40:39.657Z,100401.86
2018-11-07T21:42:48.219Z,100400.64
2018-11-07T21:44:56.030Z,100399.56
2018-11-07T21:47:03.924Z,100399.81
2018-11-07T21:49:11.710Z,100398.01
2018-11-07T21:51:19.615Z,100407.61
2018-11-07T21:53:27.437Z,100411.16
2018-11-07T21:55:35.289Z,100415.19
2018-11-07T21:57:43.054Z,100418.83
2018-11-07T21:59:50.863Z,100418.83
2018-11-07T22:01:58.768Z,100416.50
2018-11-07T22:04:07.166Z,100416.50
2018-11-07T22:06:14.937Z,100423.48
2018-11-07T22:08:22.810Z,100425.34
2018-11-07T22:10:30.645Z,100426.72
2018-11-07T22:12:38.621Z,100426.77
2018-11-07T22:14:46.636Z,100425.16
2018-11-07T22:16:54.395Z,100435.98
2018-11-07T22:19:02.151Z,100430.60
2018-11-07T22:21:09.892Z,100432.83
2018-11-07T22:23:17.710Z,100433.50
2018-11-07T22:25:25.492Z,100432.70
2018-11-07T22:27:33.302Z,100434.02
2018-11-07T22:29:41.252Z,100430.08
2018-11-07T22:31:48.934Z,100433.16
2018-11-07T22:33:54.739Z,100431.54
2018-11-07T22:36:02.471Z,100434.17
2018-11-07T22:38:10.260Z,100434.93
2018-11-07T22:40:19.216Z,100435.79
2018-11-07T22:42:27.096Z,100435.39
2018-11-07T22:44:34.961Z,100441.50
2018-11-07T22:46:42.755Z,100440.44
2018-11-07T22:48:50.568Z,100429.47
2018-11-07T22:50:58.506Z,100435.06
2018-11-07T22:53:06.236Z,100432.73
2018-11-07T22:55:14.019Z,100430.97
2018-11-07T22:57:22.774Z,100433.51
2018-11-07T22:59:30.517Z,100433.41
2018-11-07T23:01:41.996Z,100434.27
2018-11-07T23:03:49.840Z,100437.76
2018-11-07T23:05:57.553Z,100442.62
2018-11-07T23:08:05.306Z,100442.77
2018-11-07T23:10:13.239Z,100443.34
2018-11-07T23:12:21.405Z,100438.00
2018-11-07T23:14:29.157Z,100443.63
2018-11-07T23:16:36.903Z,100446.25
2018-11-07T23:18:44.643Z,100451.63
2018-11-07T23:20:52.364Z,100453.73
2018-11-07T23:23:00.093Z,100460.32
2018-11-07T23:25:08.565Z,100458.02
2018-11-07T23:27:16.395Z,100456.91
2018-11-07T23:29:24.184Z,100465.19
2018-11-07T23:31:40.171Z,100462.70
2018-11-07T23:33:52.136Z,100458.30
2018-11-07T23:36:12.155Z,100456.05
2018-11-07T23:38:27.578Z,100465.91
2018-11-07T23:40:45.555Z,100462.97
2018-11-07T23:42:52.026Z,100468.42
2018-11-07T23:44:59.748Z,100479.84
2018-11-07T23:47:07.860Z,100478.98
2018-11-07T23:49:15.935Z,100473.38
2018-11-07T23:51:23.880Z,100476.95
2018-11-07T23:53:31.672Z,100477.81
2018-11-07T23:55:39.392Z,100483.89
2018-11-07T23:59:58.407Z,100476.96
